Zorra — MFJU2 — position and weather

sailwx.info

Track history (hours):
 
Tides and Currents Weather Stations Pressure Air Temp Water Temp Dewpoint Dewpoint Depression Visibility Wind Speed Wind Dir Waves Ship Positions

Zorra

Last reported at 2018-Jun-24 15:20 UTC. Time now 2018-Jun-25 17:51 UTC.
Position N 50°43' W 001°58'.

Length 12 m.

Type: Sailing vessel. MMSI: 235019256.

Date/timePositionNaut miles runAvg speedWind from/ knotsBaromVisibWave heightAir tempDewpointWater temp
2018-Jun-24 15:20N 50°43' W 001°58'0 0.1
2018-Jun-24 15:00N 50°43' W 001°58'2 3.7
2018-Jun-24 14:30N 50°41' W 001°57'2 4.9
2018-Jun-24 14:00N 50°39' W 001°54'1 2.6
2018-Jun-24 13:30N 50°39' W 001°52'3 4.6
2018-Jun-24 12:57N 50°40' W 001°48'15 7.0
2018-Jun-24 10:49N 50°45' W 001°26'3 8.2
2018-Jun-24 10:30N 50°46' W 001°22'4 7.6
2018-Jun-24 10:00N 50°49' W 001°18'3 5.6
2018-Jun-24 09:31N 50°51' W 001°19'1 0.1
2018-Jun-23 18:20N 50°52' W 001°19'0 0.0
2018-Jun-23 17:59N 50°52' W 001°19'0 0.0
2018-Jun-23 17:23N 50°52' W 001°19'0 0.0
2018-Jun-23 16:59N 50°52' W 001°19'0 0.0
2018-Jun-23 16:29N 50°52' W 001°19'2 4.6
2018-Jun-23 16:00N 50°50' W 001°19'3 5.6
2018-Jun-23 15:29N 50°47' W 001°19'4 7.3
2018-Jun-23 14:57N 50°45' W 001°24'17 6.5
2018-Jun-23 12:18N 50°40' W 001°50'2 6.6
2018-Jun-23 11:59N 50°40' W 001°53'2 4.1
2018-Jun-23 11:30N 50°40' W 001°56'2 4.4
2018-Jun-23 10:57N 50°43' W 001°58'0 0.0
2018-Jun-23 10:30N 50°43' W 001°58'  
Track history (hours):
 
Tides and Currents Weather Stations Pressure Air Temp Water Temp Dewpoint Dewpoint Depression Visibility Wind Speed Wind Dir Waves Ship Positions

Zorra

Last reported at 2018-Jun-24 15:20 UTC. Time now 2018-Jun-25 17:51 UTC.
Position N 50°43' W 001°58'.

Length 12 m.

Type: Sailing vessel. MMSI: 235019256.

Date/timePositionNaut miles runAvg speedWind from/ knotsBaromVisibWave heightAir tempDewpointWater temp
2018-Jun-24 15:20N 50°43' W 001°58'0 0.1
2018-Jun-24 15:00N 50°43' W 001°58'2 3.7
2018-Jun-24 14:30N 50°41' W 001°57'2 4.9
2018-Jun-24 14:00N 50°39' W 001°54'1 2.6
2018-Jun-24 13:30N 50°39' W 001°52'3 4.6
2018-Jun-24 12:57N 50°40' W 001°48'15 7.0
2018-Jun-24 10:49N 50°45' W 001°26'3 8.2
2018-Jun-24 10:30N 50°46' W 001°22'4 7.6
2018-Jun-24 10:00N 50°49' W 001°18'3 5.6
2018-Jun-24 09:31N 50°51' W 001°19'1 0.1
2018-Jun-23 18:20N 50°52' W 001°19'0 0.0
2018-Jun-23 17:59N 50°52' W 001°19'0 0.0
2018-Jun-23 17:23N 50°52' W 001°19'0 0.0
2018-Jun-23 16:59N 50°52' W 001°19'0 0.0
2018-Jun-23 16:29N 50°52' W 001°19'2 4.6
2018-Jun-23 16:00N 50°50' W 001°19'3 5.6
2018-Jun-23 15:29N 50°47' W 001°19'4 7.3
2018-Jun-23 14:57N 50°45' W 001°24'17 6.5
2018-Jun-23 12:18N 50°40' W 001°50'2 6.6
2018-Jun-23 11:59N 50°40' W 001°53'2 4.1
2018-Jun-23 11:30N 50°40' W 001°56'2 4.4
2018-Jun-23 10:57N 50°43' W 001°58'0 0.0
2018-Jun-23 10:30N 50°43' W 001°58'  

Dump ship's entire track history